createdAt,value
2023-02-28T00:00:37.020Z,0.75
2023-02-28T00:05:39.112Z,0.52
2023-02-28T00:10:40.580Z,0.05
2023-02-28T00:15:42.116Z,1.40
2023-02-28T00:20:43.567Z,0.10
2023-02-28T00:25:45.708Z,1.10
2023-02-28T00:30:48.020Z,0.57
2023-02-28T00:35:49.842Z,1.13
2023-02-28T00:40:51.349Z,0.75
2023-02-28T00:45:52.906Z,1.45
2023-02-28T00:50:54.605Z,0.70
2023-02-28T00:55:56.087Z,0.65
2023-02-28T01:00:57.501Z,0.13
2023-02-28T01:05:59.160Z,1.17
2023-02-28T01:11:11.861Z,0.70
2023-02-28T01:16:14.074Z,0.63
2023-02-28T01:21:18.510Z,5.38
2023-02-28T01:26:22.830Z,3.08
2023-02-28T01:31:25.043Z,0.68
2023-02-28T01:36:26.691Z,1.20
2023-02-28T01:41:31.973Z,0.30
2023-02-28T01:46:36.169Z,2.17
2023-02-28T01:51:44.842Z,1.75
2023-02-28T01:56:50.915Z,1.08
2023-02-28T02:01:53.371Z,1.58
2023-02-28T02:06:55.636Z,1.15
2023-02-28T02:11:57.668Z,0.30
2023-02-28T02:17:05.727Z,1.23
2023-02-28T02:22:38.527Z,0.85
2023-02-28T02:28:15.467Z,4.78
2023-02-28T02:33:48.133Z,4.82
2023-02-28T02:39:26.881Z,1.95
2023-02-28T02:44:32.641Z,1.80
2023-02-28T02:49:36.466Z,1.55
2023-02-28T02:54:41.470Z,1.00
2023-02-28T02:59:43.825Z,4.57
2023-02-28T03:04:53.603Z,0.70
2023-02-28T03:09:57.618Z,1.02
2023-02-28T03:15:08.285Z,4.85
2023-02-28T03:20:32.082Z,1.35
2023-02-28T03:25:54.541Z,4.47
2023-02-28T03:31:04.197Z,3.45
2023-02-28T03:36:17.833Z,1.63
2023-02-28T03:41:33.583Z,0.70
2023-02-28T03:46:39.235Z,0.82
2023-02-28T03:51:43.747Z,2.47
2023-02-28T03:56:53.359Z,0.73
2023-02-28T04:01:55.145Z,3.50
2023-02-28T04:07:07.305Z,0.50
2023-02-28T04:12:09.715Z,0.60
2023-02-28T04:17:11.143Z,0.80
2023-02-28T04:22:12.769Z,1.77
2023-02-28T04:27:14.261Z,2.45
2023-02-28T04:32:15.854Z,1.50
2023-02-28T04:37:17.454Z,4.55
2023-02-28T04:42:18.909Z,0.98
2023-02-28T04:47:20.352Z,0.60
2023-02-28T04:52:22.016Z,1.42
2023-02-28T04:57:23.510Z,1.85
2023-02-28T05:02:25.067Z,7.93
2023-02-28T05:07:26.558Z,0.45
2023-02-28T05:12:28.000Z,0.73
2023-02-28T05:17:29.607Z,4.72
2023-02-28T05:22:31.094Z,1.13
2023-02-28T05:27:32.748Z,2.95
2023-02-28T05:32:34.266Z,1.52
2023-02-28T05:37:35.850Z,1.95
2023-02-28T05:42:38.245Z,0.82
2023-02-28T05:47:50.215Z,1.75
2023-02-28T05:52:52.258Z,1.95
2023-02-28T05:57:53.739Z,1.50
2023-02-28T06:02:55.292Z,3.20
2023-02-28T06:07:56.857Z,2.03
2023-02-28T06:13:01.244Z,2.08
2023-02-28T06:18:02.812Z,1.15
2023-02-28T06:23:04.313Z,0.90
2023-02-28T06:28:05.787Z,5.35
2023-02-28T06:33:07.295Z,0.80
2023-02-28T06:38:08.769Z,1.25
2023-02-28T06:43:10.557Z,3.53
2023-02-28T06:48:11.967Z,0.70
2023-02-28T06:53:13.937Z,0.75
2023-02-28T06:58:15.424Z,1.63
2023-02-28T07:03:16.915Z,1.83
2023-02-28T07:08:18.446Z,3.72
2023-02-28T07:13:19.866Z,2.25
2023-02-28T07:18:21.352Z,1.85
2023-02-28T07:23:25.892Z,1.65
2023-02-28T07:28:27.415Z,5.22
2023-02-28T07:33:28.904Z,4.53
2023-02-28T07:38:30.394Z,1.42
2023-02-28T07:43:33.148Z,5.03
2023-02-28T07:48:35.054Z,1.75
2023-02-28T07:53:36.965Z,1.67
2023-02-28T07:58:38.527Z,1.98
2023-02-28T08:03:40.840Z,2.33
2023-02-28T08:08:42.437Z,2.22
2023-02-28T08:13:45.167Z,3.50
2023-02-28T08:18:46.861Z,2.90
2023-02-28T08:23:50.286Z,1.08
2023-02-28T08:28:51.725Z,2.33
2023-02-28T08:33:53.214Z,1.88
2023-02-28T08:38:54.722Z,6.35
2023-02-28T08:43:56.258Z,5.93
2023-02-28T08:48:58.381Z,1.65
2023-02-28T08:54:01.232Z,1.75
2023-02-28T08:59:02.758Z,1.23
2023-02-28T09:04:04.242Z,1.40
2023-02-28T09:09:06.047Z,2.38
2023-02-28T09:14:07.608Z,0.95
2023-02-28T09:19:12.056Z,1.15
2023-02-28T09:24:13.523Z,2.40
2023-02-28T09:29:14.979Z,10.60
2023-02-28T09:34:16.824Z,2.63
2023-02-28T09:39:18.283Z,1.77
2023-02-28T09:44:42.842Z,3.13
2023-02-28T09:49:48.442Z,1.00
2023-02-28T09:54:49.984Z,3.05
2023-02-28T10:00:04.340Z,1.55
2023-02-28T10:05:31.195Z,0.98
2023-02-28T10:10:38.925Z,0.82
2023-02-28T10:15:41.284Z,0.88
2023-02-28T10:20:43.968Z,1.77
2023-02-28T10:25:53.200Z,11.15
2023-02-28T10:30:55.873Z,0.60
2023-02-28T10:35:57.907Z,1.40
2023-02-28T10:41:11.443Z,1.70
2023-02-28T10:46:19.374Z,1.27
2023-02-28T10:51:23.897Z,1.75
2023-02-28T10:56:26.302Z,1.27
2023-02-28T11:01:31.130Z,1.23
2023-02-28T11:06:35.337Z,1.43
2023-02-28T11:11:45.897Z,2.38
2023-02-28T11:16:48.778Z,1.33
2023-02-28T11:22:02.399Z,2.38
2023-02-28T11:27:04.025Z,1.10
2023-02-28T11:32:17.814Z,0.73
2023-02-28T11:37:28.631Z,1.92
2023-02-28T11:42:33.166Z,3.17
2023-02-28T11:47:58.036Z,1.58
2023-02-28T11:53:11.521Z,1.40
2023-02-28T11:58:28.079Z,1.00
2023-02-28T12:03:56.295Z,3.03
2023-02-28T12:09:03.162Z,3.38
2023-02-28T12:14:45.450Z,3.20
2023-02-28T12:20:17.731Z,2.60
2023-02-28T12:25:55.835Z,4.15
2023-02-28T12:31:15.301Z,1.25
2023-02-28T12:36:20.120Z,1.15
2023-02-28T12:42:10.785Z,3.87
2023-02-28T12:47:16.373Z,4.50
2023-02-28T12:52:27.076Z,2.25
2023-02-28T12:57:53.280Z,1.45
2023-02-28T13:08:21.576Z,2.73
2023-02-28T13:13:28.821Z,2.63
2023-02-28T13:18:47.512Z,1.50
2023-02-28T13:24:05.125Z,1.92
2023-02-28T13:29:15.568Z,3.10
2023-02-28T13:34:17.526Z,5.20
2023-02-28T13:39:37.233Z,2.55
2023-02-28T13:45:04.903Z,4.22
2023-02-28T13:50:33.055Z,1.08
2023-02-28T13:55:47.145Z,3.63
2023-02-28T14:01:04.529Z,2.05
2023-02-28T14:06:09.981Z,3.83
2023-02-28T14:11:35.199Z,3.00
2023-02-28T14:16:47.205Z,4.55
2023-02-28T14:22:06.614Z,2.13
2023-02-28T14:27:29.699Z,3.00
2023-02-28T14:33:00.412Z,2.53
2023-02-28T14:38:06.574Z,3.15
2023-02-28T14:43:21.530Z,3.45
2023-02-28T14:48:26.089Z,3.20
2023-02-28T14:53:37.132Z,2.35
2023-02-28T14:58:38.861Z,3.72
2023-02-28T15:03:41.051Z,4.82
2023-02-28T15:08:42.609Z,2.38
2023-02-28T15:13:51.936Z,1.77
2023-02-28T15:19:22.578Z,1.42
2023-02-28T15:24:35.224Z,3.45
2023-02-28T15:29:56.906Z,3.00
2023-02-28T15:35:05.155Z,1.83
2023-02-28T15:40:14.837Z,2.97
2023-02-28T15:45:38.020Z,4.75
2023-02-28T15:50:39.622Z,1.85
2023-02-28T15:55:41.118Z,5.68
2023-02-28T16:00:45.036Z,3.15
2023-02-28T16:05:46.621Z,1.48
2023-02-28T16:10:48.169Z,2.80
2023-02-28T16:15:49.651Z,4.03
2023-02-28T16:20:51.223Z,1.50
2023-02-28T16:25:52.746Z,2.85
2023-02-28T16:30:54.786Z,2.67
2023-02-28T16:35:56.509Z,2.47
2023-02-28T16:41:00.568Z,1.10
2023-02-28T16:46:02.111Z,4.18
2023-02-28T16:51:03.944Z,4.22
2023-02-28T16:56:05.788Z,5.97
2023-02-28T17:01:07.241Z,2.92
2023-02-28T17:06:24.090Z,6.38
2023-02-28T17:11:26.949Z,2.92
2023-02-28T17:16:34.461Z,2.22
2023-02-28T17:21:36.226Z,3.20
2023-02-28T17:26:37.677Z,1.55
2023-02-28T17:31:40.417Z,1.85
2023-02-28T17:36:42.838Z,1.80
2023-02-28T17:41:44.347Z,3.88
2023-02-28T17:46:46.596Z,1.95
2023-02-28T17:51:48.687Z,1.88
2023-02-28T17:56:50.256Z,2.05
2023-02-28T18:01:51.843Z,1.40
2023-02-28T18:06:54.490Z,3.10
2023-02-28T18:11:56.862Z,1.02
2023-02-28T18:16:58.383Z,1.35
2023-02-28T18:21:59.909Z,5.40
2023-02-28T18:27:01.420Z,7.95
2023-02-28T18:32:02.937Z,3.03
2023-02-28T18:37:04.620Z,3.20
2023-02-28T18:42:06.105Z,2.55
2023-02-28T18:47:07.818Z,7.00
2023-02-28T18:52:09.295Z,3.17
2023-02-28T18:57:10.759Z,7.90
2023-02-28T19:02:12.190Z,8.38
2023-02-28T19:07:13.893Z,11.30
2023-02-28T19:12:15.370Z,4.78
2023-02-28T19:17:16.813Z,7.07
2023-02-28T19:22:18.913Z,8.63
2023-02-28T19:27:20.605Z,3.83
2023-02-28T19:32:22.125Z,5.75
2023-02-28T19:37:23.738Z,5.32
2023-02-28T19:42:25.649Z,5.55
2023-02-28T19:47:28.090Z,11.52
2023-02-28T19:52:29.597Z,15.25
2023-02-28T19:57:31.112Z,9.13
2023-02-28T20:02:32.711Z,3.92
2023-02-28T20:07:34.636Z,9.48
2023-02-28T20:12:36.100Z,5.07
2023-02-28T20:17:37.693Z,7.22
2023-02-28T20:22:39.606Z,4.50
2023-02-28T20:27:41.342Z,6.40
2023-02-28T20:32:42.792Z,10.70
2023-02-28T20:37:44.298Z,3.00
2023-02-28T20:42:46.104Z,4.40
2023-02-28T20:47:47.638Z,4.50
2023-02-28T20:52:49.111Z,7.50
2023-02-28T20:57:50.664Z,4.20
2023-02-28T21:02:52.360Z,6.22
2023-02-28T21:07:53.852Z,5.65
2023-02-28T21:12:55.461Z,8.98
2023-02-28T21:17:57.024Z,6.82
2023-02-28T21:22:58.523Z,8.85
2023-02-28T21:28:00.114Z,7.43
2023-02-28T21:33:01.596Z,11.13
2023-02-28T21:38:03.030Z,5.20
2023-02-28T21:43:04.461Z,4.15
2023-02-28T21:48:05.999Z,9.15
2023-02-28T21:53:07.437Z,4.85
2023-02-28T21:58:08.880Z,8.45
2023-02-28T22:03:10.498Z,13.18
2023-02-28T22:08:12.070Z,23.20
2023-02-28T22:13:13.586Z,9.10
2023-02-28T22:18:15.068Z,6.43
2023-02-28T22:23:16.510Z,8.43
2023-02-28T22:28:18.095Z,9.68
2023-02-28T22:33:19.632Z,9.90
2023-02-28T22:38:21.062Z,7.95
2023-02-28T22:43:22.516Z,9.68
2023-02-28T22:48:23.976Z,13.43
2023-02-28T22:53:25.435Z,10.90
2023-02-28T22:58:27.405Z,10.40
2023-02-28T23:03:30.647Z,5.82
2023-02-28T23:08:32.127Z,8.15
2023-02-28T23:13:36.718Z,7.30
2023-02-28T23:18:38.278Z,6.82
2023-02-28T23:23:39.830Z,3.80
2023-02-28T23:28:41.411Z,7.32
2023-02-28T23:33:42.982Z,7.30
2023-02-28T23:38:47.786Z,6.22
2023-02-28T23:43:51.101Z,6.38
2023-02-28T23:48:52.621Z,9.45
2023-02-28T23:53:54.165Z,6.90
2023-02-28T23:59:00.180Z,6.93
